createdAt,value
2022-09-11T00:00:54.276Z,75.36
2022-09-11T00:03:58.564Z,75.50
2022-09-11T00:07:01.114Z,76.41
2022-09-11T00:10:03.819Z,75.85
2022-09-11T00:13:07.332Z,76.35
2022-09-11T00:16:20.565Z,76.67
2022-09-11T00:19:24.564Z,76.39
2022-09-11T00:22:28.173Z,76.01
2022-09-11T00:25:30.774Z,76.48
2022-09-11T00:28:34.543Z,76.97
2022-09-11T00:31:37.370Z,76.56
2022-09-11T00:34:41.477Z,76.63
2022-09-11T00:37:44.115Z,77.96
2022-09-11T00:40:47.693Z,77.35
2022-09-11T00:43:54.402Z,77.52
2022-09-11T00:46:59.505Z,77.51
2022-09-11T00:50:11.013Z,77.50
2022-09-11T00:53:17.950Z,77.47
2022-09-11T00:56:21.829Z,77.14
2022-09-11T00:59:27.091Z,77.00
2022-09-11T01:02:32.754Z,76.67
2022-09-11T01:05:39.317Z,77.06
2022-09-11T01:08:42.222Z,77.14
2022-09-11T01:11:51.972Z,76.73
2022-09-11T01:15:01.660Z,76.97
2022-09-11T01:18:10.540Z,77.48
2022-09-11T01:21:38.789Z,77.41
2022-09-11T01:24:57.305Z,77.73
2022-09-11T01:28:06.345Z,77.35
2022-09-11T01:31:13.004Z,77.75
2022-09-11T01:34:22.859Z,77.60
2022-09-11T01:37:32.149Z,77.35
2022-09-11T01:40:41.592Z,77.19
2022-09-11T01:43:51.332Z,77.45
2022-09-11T01:46:54.909Z,77.69
2022-09-11T01:50:03.566Z,77.95
2022-09-11T01:53:09.775Z,77.63
2022-09-11T01:56:17.922Z,77.96
2022-09-11T01:59:27.999Z,77.75
2022-09-11T02:02:36.144Z,77.97
2022-09-11T02:05:45.926Z,77.55
2022-09-11T02:08:54.288Z,77.84
2022-09-11T02:12:03.694Z,77.45
2022-09-11T02:15:09.137Z,77.69
2022-09-11T02:18:19.175Z,77.37
2022-09-11T02:21:22.082Z,77.10
2022-09-11T02:24:24.866Z,78.24
2022-09-11T02:27:28.698Z,78.55
2022-09-11T02:30:32.863Z,78.10
2022-09-11T02:33:36.998Z,78.40
2022-09-11T02:36:57.549Z,78.38
2022-09-11T02:40:19.566Z,77.38
2022-09-11T02:43:39.022Z,78.32
2022-09-11T02:46:56.880Z,77.77
2022-09-11T02:50:09.990Z,77.95
2022-09-11T02:53:20.325Z,77.75
2022-09-11T02:56:32.568Z,77.46
2022-09-11T02:59:40.919Z,78.05
2022-09-11T03:02:45.411Z,78.13
2022-09-11T03:05:48.857Z,78.09
2022-09-11T03:08:52.479Z,77.36
2022-09-11T03:11:55.100Z,77.67
2022-09-11T03:14:58.529Z,79.15
2022-09-11T03:18:05.129Z,79.21
2022-09-11T03:21:07.812Z,80.30
2022-09-11T03:24:10.851Z,81.28
2022-09-11T03:27:14.323Z,79.73
2022-09-11T03:30:17.142Z,80.10
2022-09-11T03:33:21.179Z,80.22
2022-09-11T03:36:23.805Z,80.23
2022-09-11T03:39:26.486Z,80.93
2022-09-11T03:42:29.150Z,81.28
2022-09-11T03:45:32.370Z,81.21
2022-09-11T03:48:36.467Z,81.77
2022-09-11T03:51:39.084Z,81.65
2022-09-11T03:54:42.271Z,81.72
2022-09-11T03:57:44.825Z,79.74
2022-09-11T04:00:47.984Z,81.49
2022-09-11T04:03:52.047Z,81.81
2022-09-11T04:06:54.579Z,81.39
2022-09-11T04:09:57.331Z,81.58
2022-09-11T04:13:00.103Z,82.06
2022-09-11T04:16:04.842Z,81.52
2022-09-11T04:19:10.631Z,82.39
2022-09-11T04:22:13.321Z,82.70
2022-09-11T04:25:16.186Z,82.19
2022-09-11T04:28:18.774Z,82.28
2022-09-11T04:31:22.424Z,82.30
2022-09-11T04:34:26.572Z,82.10
2022-09-11T04:37:29.375Z,81.73
2022-09-11T04:40:33.291Z,82.62
2022-09-11T04:43:38.112Z,82.42
2022-09-11T04:46:41.057Z,83.72
2022-09-11T04:49:46.874Z,83.61
2022-09-11T04:52:49.534Z,82.91
2022-09-11T04:55:52.180Z,82.40
2022-09-11T04:58:56.888Z,82.91
2022-09-11T05:01:59.991Z,82.76
2022-09-11T05:05:04.452Z,82.99
2022-09-11T05:08:08.236Z,82.23
2022-09-11T05:11:13.528Z,82.18
2022-09-11T05:14:16.149Z,82.22
2022-09-11T05:17:18.897Z,82.81
2022-09-11T05:20:22.931Z,83.42
2022-09-11T05:23:25.719Z,83.29
2022-09-11T05:26:31.088Z,83.83
2022-09-11T05:29:33.657Z,83.65
2022-09-11T05:32:36.340Z,83.10
2022-09-11T05:35:40.778Z,82.94
2022-09-11T05:38:43.989Z,81.73
2022-09-11T05:41:46.682Z,81.70
2022-09-11T05:44:49.365Z,81.88
2022-09-11T05:47:55.933Z,81.62
2022-09-11T05:51:02.141Z,81.60
2022-09-11T05:54:05.419Z,81.18
2022-09-11T05:57:08.170Z,80.62
2022-09-11T06:00:13.259Z,81.22
2022-09-11T06:03:16.374Z,81.65
2022-09-11T06:06:22.925Z,81.42
2022-09-11T06:09:25.700Z,81.02
2022-09-11T06:12:28.349Z,80.54
2022-09-11T06:15:46.117Z,80.85
2022-09-11T06:18:50.409Z,80.71
2022-09-11T06:21:54.434Z,80.66
2022-09-11T06:24:57.036Z,80.33
2022-09-11T06:27:59.732Z,79.78
2022-09-11T06:31:03.292Z,79.96
2022-09-11T06:34:05.991Z,79.88
2022-09-11T06:37:10.123Z,79.80
2022-09-11T06:40:13.237Z,79.90
2022-09-11T06:43:16.137Z,79.19
2022-09-11T06:46:20.597Z,78.55
2022-09-11T06:49:23.694Z,78.21
2022-09-11T06:52:28.088Z,78.30
2022-09-11T06:55:31.672Z,78.16
2022-09-11T06:58:34.677Z,78.17
2022-09-11T07:01:39.798Z,77.83
2022-09-11T07:04:42.525Z,78.55
2022-09-11T07:07:48.605Z,77.81
2022-09-11T07:10:51.300Z,77.47
2022-09-11T07:13:54.812Z,77.89
2022-09-11T07:16:57.421Z,78.31
2022-09-11T07:20:00.122Z,78.25
2022-09-11T07:23:04.044Z,78.19
2022-09-11T07:26:08.945Z,76.03
2022-09-11T07:29:12.816Z,76.42
2022-09-11T07:32:15.603Z,75.37
2022-09-11T07:35:21.829Z,75.91
2022-09-11T07:38:25.758Z,75.73
2022-09-11T07:41:29.590Z,74.77
2022-09-11T07:44:32.160Z,74.77
2022-09-11T07:47:34.788Z,75.10
2022-09-11T07:50:37.331Z,75.74
2022-09-11T07:53:43.159Z,75.16
2022-09-11T07:56:45.799Z,74.74
2022-09-11T07:59:48.403Z,73.76
2022-09-11T08:02:51.079Z,75.40
2022-09-11T08:05:59.360Z,74.66
2022-09-11T08:09:06.214Z,73.28
2022-09-11T08:12:09.126Z,72.45
2022-09-11T08:15:11.744Z,72.76
2022-09-11T08:18:14.716Z,72.51
2022-09-11T08:21:17.568Z,71.88
2022-09-11T08:24:21.650Z,71.10
2022-09-11T08:27:24.235Z,71.48
2022-09-11T08:30:26.932Z,69.70
2022-09-11T08:33:29.627Z,70.93
2022-09-11T08:36:32.235Z,70.51
2022-09-11T08:39:36.973Z,70.23
2022-09-11T08:42:41.854Z,69.32
2022-09-11T08:45:45.179Z,69.03
2022-09-11T08:48:55.731Z,68.31
2022-09-11T08:52:02.652Z,69.26
2022-09-11T08:55:12.993Z,69.13
2022-09-11T08:58:22.094Z,68.11
2022-09-11T09:01:29.136Z,67.21
2022-09-11T09:04:45.594Z,66.49
2022-09-11T09:08:02.382Z,65.87
2022-09-11T09:11:15.870Z,65.31
2022-09-11T09:14:33.060Z,63.98
2022-09-11T09:17:42.539Z,63.83
2022-09-11T09:20:50.632Z,64.07
2022-09-11T09:23:56.582Z,63.38
2022-09-11T09:27:05.037Z,63.21
2022-09-11T09:30:16.264Z,62.88
2022-09-11T09:33:30.915Z,63.94
2022-09-11T09:36:37.639Z,63.22
2022-09-11T09:39:41.064Z,62.70
2022-09-11T09:42:59.434Z,62.00
2022-09-11T09:46:16.762Z,61.68
2022-09-11T09:49:23.226Z,61.47
2022-09-11T09:52:28.290Z,62.61
2022-09-11T09:55:31.512Z,63.16
2022-09-11T09:58:41.785Z,61.62
2022-09-11T10:01:47.240Z,62.01
2022-09-11T10:05:08.702Z,62.14
2022-09-11T10:08:29.171Z,61.69
2022-09-11T10:11:32.387Z,58.80
2022-09-11T10:14:51.639Z,59.68
2022-09-11T10:17:59.994Z,58.17
2022-09-11T10:21:17.174Z,59.42
2022-09-11T10:24:23.540Z,58.68
2022-09-11T10:27:29.031Z,57.09
2022-09-11T10:30:36.112Z,56.08
2022-09-11T10:33:41.062Z,57.88
2022-09-11T10:36:53.751Z,57.98
2022-09-11T10:40:06.704Z,59.86
2022-09-11T10:43:24.677Z,60.66
2022-09-11T10:46:39.557Z,61.25
2022-09-11T10:49:43.375Z,62.07
2022-09-11T10:52:50.966Z,61.97
2022-09-11T10:56:00.473Z,61.94
2022-09-11T10:59:11.435Z,61.57
2022-09-11T11:02:31.648Z,60.23
2022-09-11T11:05:45.410Z,58.51
2022-09-11T11:09:21.140Z,58.06
2022-09-11T11:12:40.341Z,58.69
2022-09-11T11:15:57.720Z,59.66
2022-09-11T11:19:18.845Z,60.82
2022-09-11T11:22:36.814Z,59.44
2022-09-11T11:25:47.985Z,59.07
2022-09-11T11:29:09.052Z,59.36
2022-09-11T11:32:27.841Z,59.25
2022-09-11T11:35:41.947Z,59.39
2022-09-11T11:38:52.858Z,59.36
2022-09-11T11:42:07.186Z,59.78
2022-09-11T11:45:17.888Z,59.18
2022-09-11T11:48:26.624Z,57.93
2022-09-11T11:51:35.858Z,57.28
2022-09-11T11:54:42.969Z,57.34
2022-09-11T11:57:55.284Z,55.34
2022-09-11T12:01:02.367Z,55.33
2022-09-11T12:04:19.084Z,56.52
2022-09-11T12:07:26.296Z,57.04
2022-09-11T12:10:33.303Z,57.12
2022-09-11T12:13:42.856Z,57.58
2022-09-11T12:16:48.665Z,58.04
2022-09-11T12:20:31.841Z,58.86
2022-09-11T12:23:56.712Z,57.76
2022-09-11T12:27:48.776Z,58.04
2022-09-11T12:31:07.234Z,57.34
2022-09-11T12:34:17.369Z,57.96
2022-09-11T12:37:28.509Z,59.06
2022-09-11T12:40:37.619Z,58.90
2022-09-11T12:43:49.071Z,59.90
2022-09-11T12:47:18.603Z,61.59
2022-09-11T12:50:25.772Z,62.31
2022-09-11T12:53:32.478Z,64.64
2022-09-11T12:56:36.031Z,65.24
2022-09-11T12:59:41.465Z,63.92
2022-09-11T13:02:51.842Z,64.84
2022-09-11T13:05:56.435Z,65.44
2022-09-11T13:09:02.191Z,65.67
2022-09-11T13:12:48.899Z,64.99
2022-09-11T13:15:53.060Z,65.52
2022-09-11T13:19:02.994Z,64.66
2022-09-11T13:22:22.159Z,64.65
2022-09-11T13:25:26.607Z,63.96
2022-09-11T13:28:31.774Z,64.00
2022-09-11T13:31:36.156Z,62.90
2022-09-11T13:34:44.456Z,60.95
2022-09-11T13:37:59.584Z,60.02
2022-09-11T13:41:06.142Z,60.02
2022-09-11T13:44:11.965Z,59.08
2022-09-11T13:47:20.171Z,59.06
2022-09-11T13:50:24.405Z,57.66
2022-09-11T13:53:28.400Z,58.05
2022-09-11T13:56:45.301Z,56.12
2022-09-11T13:59:50.148Z,57.59
2022-09-11T14:02:52.883Z,57.81
2022-09-11T14:06:00.009Z,58.22
2022-09-11T14:09:03.674Z,57.00
2022-09-11T14:12:07.586Z,58.40
2022-09-11T14:15:20.405Z,58.47
2022-09-11T14:18:29.745Z,57.89
2022-09-11T14:21:35.400Z,58.73
2022-09-11T14:24:38.721Z,58.96
2022-09-11T14:27:44.709Z,58.93
2022-09-11T14:31:06.698Z,58.29
2022-09-11T14:34:17.786Z,59.02
2022-09-11T14:37:22.803Z,59.13
2022-09-11T14:40:25.453Z,58.63
2022-09-11T14:43:32.764Z,60.20
2022-09-11T14:46:35.398Z,61.13
2022-09-11T14:49:38.115Z,61.77
2022-09-11T14:52:42.723Z,63.15
2022-09-11T14:55:45.346Z,66.07
2022-09-11T14:58:48.786Z,66.34
2022-09-11T15:01:52.549Z,68.24
2022-09-11T15:04:57.487Z,69.27
2022-09-11T15:08:01.818Z,68.49
2022-09-11T15:11:04.431Z,68.92
2022-09-11T15:14:20.777Z,69.26
2022-09-11T15:17:31.857Z,68.28
2022-09-11T15:20:34.853Z,68.15
2022-09-11T15:23:39.062Z,67.61
2022-09-11T15:26:41.891Z,68.62
2022-09-11T15:29:45.380Z,67.98
2022-09-11T15:32:48.596Z,68.13
2022-09-11T15:35:51.946Z,68.25
2022-09-11T15:38:56.193Z,67.54
2022-09-11T15:45:22.646Z,68.21
2022-09-11T15:48:26.811Z,68.33
2022-09-11T15:51:29.921Z,68.28
2022-09-11T15:54:34.035Z,67.62
2022-09-11T15:57:36.737Z,68.52
2022-09-11T16:00:39.904Z,68.35
2022-09-11T16:03:42.571Z,69.46
2022-09-11T16:06:47.671Z,68.96
2022-09-11T16:09:51.741Z,68.60
2022-09-11T16:12:58.705Z,68.97
2022-09-11T16:16:04.009Z,69.70
2022-09-11T16:19:06.784Z,68.56
2022-09-11T16:22:09.929Z,68.55
2022-09-11T16:25:13.991Z,68.72
2022-09-11T16:28:16.525Z,68.58
2022-09-11T16:31:19.288Z,68.73
2022-09-11T16:34:21.870Z,68.80
2022-09-11T16:37:24.656Z,69.13
2022-09-11T16:40:28.571Z,68.95
2022-09-11T16:43:31.688Z,69.08
2022-09-11T16:46:34.541Z,68.85
2022-09-11T16:50:03.385Z,69.53
2022-09-11T16:53:00.194Z,69.91
2022-09-11T16:56:08.185Z,70.09
2022-09-11T16:59:10.995Z,70.28
2022-09-11T17:02:13.586Z,70.13
2022-09-11T17:05:18.048Z,70.37
2022-09-11T17:08:30.962Z,70.50
2022-09-11T17:11:34.953Z,70.59
2022-09-11T17:14:37.511Z,70.77
2022-09-11T17:17:41.361Z,70.86
2022-09-11T17:20:44.502Z,71.03
2022-09-11T17:23:47.272Z,71.32
2022-09-11T17:26:51.182Z,71.53
2022-09-11T17:29:53.959Z,71.63
2022-09-11T17:32:57.299Z,71.43
2022-09-11T17:36:01.334Z,71.63
2022-09-11T17:39:04.958Z,71.63
2022-09-11T17:42:13.034Z,72.03
2022-09-11T17:45:16.547Z,72.59
2022-09-11T17:48:19.362Z,72.78
2022-09-11T17:51:24.909Z,72.93
2022-09-11T17:54:28.474Z,73.29
2022-09-11T17:57:32.838Z,73.54
2022-09-11T18:00:35.696Z,73.89
2022-09-11T18:03:38.590Z,73.09
2022-09-11T18:06:42.607Z,73.04
2022-09-11T18:09:45.894Z,73.04
2022-09-11T18:12:49.965Z,74.00
2022-09-11T18:15:52.533Z,74.47
2022-09-11T18:18:55.484Z,74.58
2022-09-11T18:21:59.745Z,74.80
2022-09-11T18:25:02.398Z,75.17
2022-09-11T18:28:07.037Z,75.17
2022-09-11T18:31:09.933Z,75.22
2022-09-11T18:34:15.045Z,75.10
2022-09-11T18:37:18.273Z,74.98
2022-09-11T18:40:20.917Z,74.91
2022-09-11T18:43:25.110Z,75.63
2022-09-11T18:46:28.079Z,75.81
2022-09-11T18:49:30.836Z,75.91
2022-09-11T18:52:33.627Z,75.98
2022-09-11T18:55:37.280Z,75.88
2022-09-11T18:58:41.804Z,75.82
2022-09-11T19:01:44.721Z,75.75
2022-09-11T19:04:47.333Z,76.16
2022-09-11T19:07:50.380Z,75.95
2022-09-11T19:10:53.173Z,76.01
2022-09-11T19:14:03.284Z,75.98
2022-09-11T19:17:05.866Z,76.29
2022-09-11T19:20:11.178Z,75.94
2022-09-11T19:23:13.767Z,76.54
2022-09-11T19:26:18.188Z,76.64
2022-09-11T19:29:22.605Z,76.21
2022-09-11T19:32:25.520Z,76.48
2022-09-11T19:35:28.073Z,76.71
2022-09-11T19:38:32.398Z,76.12
2022-09-11T19:41:37.673Z,76.17
2022-09-11T19:44:42.279Z,76.32
2022-09-11T19:47:47.999Z,76.49
2022-09-11T19:50:50.779Z,76.36
2022-09-11T19:53:55.965Z,76.27
2022-09-11T19:57:00.279Z,76.10
2022-09-11T20:00:05.723Z,75.61
2022-09-11T20:03:10.470Z,75.21
2022-09-11T20:06:16.949Z,75.87
2022-09-11T20:09:31.001Z,75.21
2022-09-11T20:12:37.060Z,74.88
2022-09-11T20:15:42.867Z,74.39
2022-09-11T20:18:45.663Z,73.80
2022-09-11T20:21:48.397Z,73.26
2022-09-11T20:24:51.125Z,72.56
2022-09-11T20:27:53.850Z,71.97
2022-09-11T20:30:57.870Z,71.21
2022-09-11T20:34:01.051Z,70.41
2022-09-11T20:37:08.148Z,70.25
2022-09-11T20:40:13.206Z,70.64
2022-09-11T20:43:15.938Z,70.14
2022-09-11T20:46:20.110Z,69.74
2022-09-11T20:49:22.680Z,70.58
2022-09-11T20:52:25.272Z,70.13
2022-09-11T20:55:28.016Z,70.29
2022-09-11T20:58:30.764Z,70.28
2022-09-11T21:01:35.900Z,69.50
2022-09-11T21:04:39.174Z,70.42
2022-09-11T21:07:42.033Z,70.06
2022-09-11T21:10:44.671Z,70.08
2022-09-11T21:13:47.594Z,70.01
2022-09-11T21:16:53.056Z,69.73
2022-09-11T21:19:57.499Z,69.40
2022-09-11T21:23:00.297Z,70.34
2022-09-11T21:26:03.435Z,70.12
2022-09-11T21:29:08.222Z,70.38
2022-09-11T21:32:12.406Z,70.51
2022-09-11T21:35:15.087Z,70.78
2022-09-11T21:38:17.760Z,70.46
2022-09-11T21:41:20.456Z,69.98
2022-09-11T21:44:23.151Z,70.03
2022-09-11T21:47:27.067Z,69.82
2022-09-11T21:50:29.972Z,69.68
2022-09-11T21:53:32.606Z,69.57
2022-09-11T21:56:35.648Z,69.75
2022-09-11T21:59:38.314Z,69.77
2022-09-11T22:02:42.395Z,70.04
2022-09-11T22:05:47.637Z,70.07
2022-09-11T22:08:50.793Z,70.35
2022-09-11T22:11:55.732Z,69.85
2022-09-11T22:15:02.182Z,69.75
2022-09-11T22:18:06.289Z,70.03
2022-09-11T22:21:10.197Z,69.82
2022-09-11T22:24:12.751Z,70.06
2022-09-11T22:27:15.515Z,70.60
2022-09-11T22:30:18.298Z,70.43
2022-09-11T22:33:22.842Z,70.93
2022-09-11T22:36:28.322Z,71.21
2022-09-11T22:39:31.847Z,70.78
2022-09-11T22:42:34.527Z,70.26
2022-09-11T22:45:37.467Z,70.67
2022-09-11T22:48:44.401Z,70.24
2022-09-11T22:51:47.112Z,69.99
2022-09-11T22:54:49.715Z,69.88
2022-09-11T22:57:52.863Z,69.99
2022-09-11T23:00:56.502Z,69.98
2022-09-11T23:04:00.615Z,70.07
2022-09-11T23:07:17.256Z,69.73
2022-09-11T23:10:24.254Z,69.58
2022-09-11T23:13:27.259Z,69.12
2022-09-11T23:16:30.897Z,68.94
2022-09-11T23:19:35.940Z,68.68
2022-09-11T23:22:38.796Z,68.99
2022-09-11T23:25:43.090Z,68.98
2022-09-11T23:28:46.540Z,69.49
2022-09-11T23:31:49.251Z,69.11
2022-09-11T23:34:54.353Z,69.33
2022-09-11T23:37:56.911Z,68.60
2022-09-11T23:40:59.743Z,69.97
2022-09-11T23:44:03.514Z,69.84
2022-09-11T23:47:06.358Z,69.18
2022-09-11T23:50:10.810Z,68.86
2022-09-11T23:53:13.476Z,68.26
2022-09-11T23:56:16.589Z,68.39
2022-09-11T23:59:19.433Z,68.81
